Time;durP1;ratioP1;P1;durP2;ratioP2;P2;SDS_P1;SDS_P2;PMS_P1;PMS_P2;Temp;Humidity;BMP_temperature;BMP_pressure;BME280_temperature;BME280_humidity;BME280_pressure;Samples;Min_cycle;Max_cycle;Signal;HPM_P1;HPM_P2
2024/03/03 00:00:14;;;;;;;51.35;26.85;;;9.40;99.90;;;;;;5106598;28;20055;-71
2024/03/03 00:02:41;;;;;;;37.03;25.67;;;9.60;99.90;;;;;;5109355;28;20474;-70
2024/03/03 00:05:08;;;;;;;43.95;24.90;;;9.70;99.90;;;;;;5104511;28;20039;-73
2024/03/03 00:07:36;;;;;;;68.18;41.22;;;9.70;99.90;;;;;;5111343;28;20036;-72
2024/03/03 00:10:03;;;;;;;60.17;37.92;;;9.90;99.90;;;;;;5101849;28;20036;-72
2024/03/03 00:12:30;;;;;;;52.00;32.97;;;9.80;99.90;;;;;;5109449;28;20039;-72
2024/03/03 00:14:58;;;;;;;37.65;27.48;;;9.70;99.90;;;;;;5106311;28;20039;-72
2024/03/03 00:17:25;;;;;;;38.40;25.88;;;9.50;99.90;;;;;;5090787;28;20032;-68
2024/03/03 00:19:52;;;;;;;42.13;25.80;;;9.40;99.90;;;;;;5103738;28;20048;-72
2024/03/03 00:22:19;;;;;;;36.00;23.90;;;9.50;99.90;;;;;;5106290;28;20047;-73
2024/03/03 00:24:47;;;;;;;38.35;25.38;;;9.50;99.90;;;;;;5103098;28;20036;-70
2024/03/03 00:27:14;;;;;;;39.90;24.38;;;9.50;99.90;;;;;;5104835;28;20119;-74
2024/03/03 00:29:41;;;;;;;40.92;25.58;;;9.50;99.90;;;;;;5104250;28;20457;-75
2024/03/03 00:32:08;;;;;;;44.42;26.55;;;9.30;99.90;;;;;;5102474;28;20429;-70
2024/03/03 00:34:36;;;;;;;39.95;24.38;;;9.30;99.90;;;;;;5107230;28;20046;-72
2024/03/03 00:37:03;;;;;;;35.88;23.70;;;9.30;99.90;;;;;;5104454;28;20046;-68
2024/03/03 00:39:31;;;;;;;38.05;24.23;;;9.40;99.90;;;;;;5109270;28;20039;-74
2024/03/03 00:41:58;;;;;;;40.97;23.83;;;9.40;99.90;;;;;;5104220;28;20039;-73
2024/03/03 00:44:26;;;;;;;36.15;24.05;;;9.30;99.90;;;;;;5105407;28;20044;-74
2024/03/03 00:46:53;;;;;;;35.83;22.83;;;9.20;99.90;;;;;;5105300;28;20043;-74
2024/03/03 00:49:20;;;;;;;33.70;24.52;;;9.00;99.90;;;;;;5087731;28;20051;-73
2024/03/03 00:51:48;;;;;;;45.28;27.30;;;9.00;99.90;;;;;;5102237;28;20052;-71
2024/03/03 00:54:15;;;;;;;46.88;28.60;;;8.90;99.90;;;;;;5109299;28;20059;-73
2024/03/03 00:56:43;;;;;;;48.28;29.23;;;8.70;99.90;;;;;;5107038;28;20075;-73
2024/03/03 00:59:13;;;;;;;45.25;28.23;;;8.70;99.90;;;;;;5106557;28;20035;-75
2024/03/03 01:01:40;;;;;;;46.38;27.30;;;8.70;99.90;;;;;;5110285;28;20042;-71
2024/03/03 01:04:08;;;;;;;42.88;26.13;;;8.60;99.90;;;;;;5104153;28;20043;-71
2024/03/03 01:06:36;;;;;;;42.75;25.45;;;8.50;99.90;;;;;;5104823;28;20469;-72
2024/03/03 01:09:04;;;;;;;43.08;24.65;;;8.50;99.90;;;;;;5090687;28;20043;-72
2024/03/03 01:11:31;;;;;;;34.15;22.92;;;8.50;99.90;;;;;;5110022;28;20085;-73
2024/03/03 01:14:00;;;;;;;38.50;22.85;;;8.60;99.90;;;;;;5109047;28;20047;-73
2024/03/03 01:16:27;;;;;;;37.33;23.15;;;8.50;99.90;;;;;;5107564;28;20036;-74
2024/03/03 01:18:54;;;;;;;38.78;23.30;;;8.60;99.90;;;;;;5109937;28;20032;-69
2024/03/03 01:21:22;;;;;;;33.83;22.35;;;8.80;99.90;;;;;;5104209;28;20044;-71
2024/03/03 01:23:49;;;;;;;42.13;24.17;;;8.80;99.90;;;;;;5089222;28;20053;-72
2024/03/03 01:26:16;;;;;;;36.22;22.88;;;8.70;99.90;;;;;;5109955;28;20070;-71
2024/03/03 01:28:44;;;;;;;34.17;21.95;;;8.60;99.90;;;;;;5108345;28;20089;-75
2024/03/03 01:31:12;;;;;;;34.10;21.88;;;8.50;99.90;;;;;;5109990;28;20040;-72
2024/03/03 01:33:40;;;;;;;36.97;22.83;;;8.50;99.90;;;;;;5106526;28;20115;-73
2024/03/03 01:36:11;;;;;;;37.25;23.33;;;8.80;99.90;;;;;;5088225;28;20043;-70
2024/03/03 01:38:38;;;;;;;37.08;22.58;;;8.60;99.90;;;;;;5109128;28;20024;-71
2024/03/03 01:41:06;;;;;;;37.17;21.00;;;8.60;99.90;;;;;;5108967;28;20044;-71
2024/03/03 01:43:34;;;;;;;22.08;14.38;;;8.70;99.90;;;;;;5088760;28;20069;-73
2024/03/03 01:46:03;;;;;;;17.95;13.23;;;8.70;99.90;;;;;;5089864;28;20478;-72
2024/03/03 01:48:30;;;;;;;14.40;11.15;;;8.60;99.90;;;;;;5108593;28;20032;-72
2024/03/03 01:50:59;;;;;;;15.30;10.82;;;8.40;99.90;;;;;;5105997;28;20418;-72
2024/03/03 01:53:38;;;;;;;14.27;9.82;;;8.30;99.90;;;;;;5105877;28;20035;-71
2024/03/03 01:56:05;;;;;;;18.80;11.43;;;7.90;99.90;;;;;;5095199;28;20090;-73
2024/03/03 01:58:33;;;;;;;19.85;12.65;;;7.90;99.90;;;;;;5059911;28;20098;-71
2024/03/03 02:01:01;;;;;;;18.75;13.90;;;8.30;99.90;;;;;;5081372;28;20047;-71
2024/03/03 02:03:30;;;;;;;21.73;13.70;;;8.40;99.90;;;;;;5082833;28;20115;-72
2024/03/03 02:05:57;;;;;;;22.00;12.90;;;8.60;99.90;;;;;;5087146;28;20479;-72
2024/03/03 02:08:26;;;;;;;19.70;11.10;;;8.60;99.90;;;;;;5091553;28;20398;-72
2024/03/03 02:10:53;;;;;;;16.63;11.68;;;8.50;99.90;;;;;;5074084;28;20444;-71
2024/03/03 02:13:20;;;;;;;21.02;13.48;;;8.40;99.90;;;;;;5090907;28;20040;-70
2024/03/03 02:15:48;;;;;;;31.85;16.40;;;8.20;99.90;;;;;;5089601;28;20445;-72
2024/03/03 02:18:15;;;;;;;30.08;17.08;;;8.00;99.90;;;;;;5074332;28;20121;-72
2024/03/03 02:20:42;;;;;;;23.85;15.75;;;7.90;99.90;;;;;;5089823;28;20111;-74
2024/03/03 02:23:11;;;;;;;27.05;15.60;;;8.00;99.90;;;;;;5085144;28;20036;-72
2024/03/03 02:25:40;;;;;;;28.60;15.77;;;7.90;99.90;;;;;;5086257;28;20075;-74
2024/03/03 02:28:09;;;;;;;23.65;16.15;;;7.90;99.90;;;;;;5090040;28;20043;-71
2024/03/03 02:30:36;;;;;;;29.27;16.58;;;7.90;99.90;;;;;;5082536;28;20108;-74
2024/03/03 02:33:05;;;;;;;26.10;16.90;;;8.00;99.90;;;;;;5090736;28;20040;-75
2024/03/03 02:35:32;;;;;;;27.45;16.58;;;7.80;99.90;;;;;;5091166;28;20102;-73
2024/03/03 02:37:59;;;;;;;25.45;17.92;;;7.90;99.90;;;;;;5090472;28;20040;-71
2024/03/03 02:40:27;;;;;;;24.63;16.42;;;8.00;99.90;;;;;;5082966;28;20097;-75
2024/03/03 02:42:54;;;;;;;25.90;17.88;;;8.10;99.90;;;;;;5081192;28;20063;-72
2024/03/03 02:45:22;;;;;;;27.50;17.23;;;8.20;99.90;;;;;;5088677;28;20048;-71
2024/03/03 02:47:53;;;;;;;23.45;17.13;;;8.10;99.90;;;;;;5087290;28;20082;-74
2024/03/03 02:50:20;;;;;;;25.02;16.55;;;8.10;99.90;;;;;;5084701;28;20035;-73
2024/03/03 02:52:47;;;;;;;27.30;16.58;;;8.20;99.90;;;;;;5089793;28;20032;-72
2024/03/03 02:55:15;;;;;;;26.55;16.00;;;8.20;99.90;;;;;;5095318;28;20052;-73
2024/03/03 02:57:42;;;;;;;22.10;16.10;;;8.20;99.90;;;;;;5108679;28;20066;-73
2024/03/03 03:00:11;;;;;;;24.10;15.60;;;7.80;99.90;;;;;;5105407;28;20047;-72
2024/03/03 03:02:39;;;;;;;27.95;16.15;;;7.80;99.90;;;;;;5110398;28;20043;-73
2024/03/03 03:05:07;;;;;;;28.83;15.75;;;7.70;99.90;;;;;;5103838;28;20051;-72
2024/03/03 03:07:35;;;;;;;22.92;15.35;;;7.60;99.90;;;;;;5108695;28;20032;-73
2024/03/03 03:10:02;;;;;;;22.83;13.80;;;7.60;99.90;;;;;;5108619;28;20043;-74
2024/03/03 03:12:29;;;;;;;20.42;13.95;;;7.50;99.90;;;;;;5107903;28;20388;-72
2024/03/03 03:14:56;;;;;;;21.38;13.80;;;7.50;99.90;;;;;;5106020;28;20395;-72
2024/03/03 03:17:24;;;;;;;20.08;14.15;;;7.50;99.90;;;;;;5092978;28;20043;-74
2024/03/03 03:19:51;;;;;;;23.33;14.40;;;7.30;99.90;;;;;;5105298;28;20032;-71
2024/03/03 03:22:20;;;;;;;21.55;14.00;;;7.30;99.90;;;;;;5107052;28;20047;-72
2024/03/03 03:24:47;;;;;;;20.17;12.70;;;7.50;99.90;;;;;;5112304;28;20034;-71
2024/03/03 03:27:14;;;;;;;21.50;13.82;;;7.60;99.90;;;;;;5106453;28;20044;-73
2024/03/03 03:29:41;;;;;;;18.48;13.07;;;7.50;99.90;;;;;;5109406;28;20054;-71
2024/03/03 03:32:09;;;;;;;20.48;14.27;;;7.50;99.90;;;;;;5108598;28;20043;-71
2024/03/03 03:34:36;;;;;;;18.30;13.95;;;7.70;99.90;;;;;;5093484;28;20042;-73
2024/03/03 03:37:04;;;;;;;19.58;13.35;;;7.70;99.90;;;;;;5108307;28;20050;-71
2024/03/03 03:39:32;;;;;;;19.98;14.50;;;7.60;99.90;;;;;;5110856;28;20089;-73
2024/03/03 03:41:59;;;;;;;20.48;13.32;;;7.60;99.90;;;;;;5109049;28;20039;-72
2024/03/03 03:44:27;;;;;;;20.55;14.35;;;7.70;99.90;;;;;;5107658;28;20035;-75
2024/03/03 03:46:54;;;;;;;19.80;14.18;;;7.80;99.90;;;;;;5108289;28;20043;-72
2024/03/03 03:49:22;;;;;;;23.15;13.68;;;7.80;99.90;;;;;;5089905;28;20039;-72
2024/03/03 03:52:07;;;;;;;23.90;13.30;;;7.70;99.90;;;;;;5084322;28;20489;-74
2024/03/03 03:54:35;;;;;;;18.70;13.13;;;7.70;99.90;;;;;;5109743;28;20063;-70
2024/03/03 03:57:02;;;;;;;17.75;12.63;;;7.70;99.90;;;;;;5109998;28;20059;-75
2024/03/03 03:59:30;;;;;;;18.98;14.10;;;7.50;99.90;;;;;;5108450;28;20036;-73
2024/03/03 04:02:00;;;;;;;19.55;13.57;;;7.30;99.90;;;;;;5106808;28;20055;-72
2024/03/03 04:04:28;;;;;;;18.08;12.57;;;7.30;99.90;;;;;;5110483;28;20123;-72
2024/03/03 04:06:55;;;;;;;18.45;12.93;;;7.10;99.90;;;;;;5089984;28;20497;-72
2024/03/03 04:09:22;;;;;;;17.25;12.23;;;7.10;99.90;;;;;;5090455;28;20452;-72
2024/03/03 04:11:49;;;;;;;17.52;11.48;;;7.20;99.90;;;;;;5093542;28;20043;-71
2024/03/03 04:14:17;;;;;;;17.88;12.10;;;7.00;99.90;;;;;;5106185;28;20048;-74
2024/03/03 04:16:44;;;;;;;16.60;11.75;;;7.10;99.90;;;;;;5090934;28;20046;-71
2024/03/03 04:19:12;;;;;;;19.42;11.02;;;7.20;99.90;;;;;;5110032;28;20059;-73
2024/03/03 04:21:43;;;;;;;13.60;10.48;;;7.20;99.90;;;;;;5108656;28;20467;-73
2024/03/03 04:24:10;;;;;;;15.07;11.52;;;7.30;99.90;;;;;;5108144;28;20036;-72
2024/03/03 04:26:38;;;;;;;17.85;11.52;;;7.10;99.90;;;;;;5111429;28;20501;-73
2024/03/03 04:29:06;;;;;;;18.25;11.57;;;7.00;99.90;;;;;;5071623;28;20043;-75
2024/03/03 04:31:33;;;;;;;16.63;11.90;;;7.00;99.90;;;;;;5110377;28;20092;-70
2024/03/03 04:34:00;;;;;;;15.65;11.52;;;7.00;99.90;;;;;;5106065;28;20084;-71
2024/03/03 04:36:28;;;;;;;17.63;11.15;;;6.90;99.90;;;;;;5106058;28;20040;-72
2024/03/03 04:38:55;;;;;;;15.68;11.40;;;6.80;99.90;;;;;;5109846;28;20402;-72
2024/03/03 04:41:23;;;;;;;14.75;11.32;;;7.00;99.90;;;;;;5107481;28;20451;-72
2024/03/03 04:43:51;;;;;;;14.13;10.88;;;7.20;99.90;;;;;;5107518;28;20038;-73
2024/03/03 04:46:19;;;;;;;16.63;11.02;;;7.30;99.90;;;;;;5106330;28;20096;-72
2024/03/03 04:48:47;;;;;;;22.17;11.48;;;7.40;99.90;;;;;;5108058;28;20086;-71
2024/03/03 04:51:14;;;;;;;16.20;11.95;;;7.30;99.90;;;;;;5104288;28;20128;-71
2024/03/03 04:53:42;;;;;;;15.88;10.95;;;7.30;99.90;;;;;;5105339;28;20036;-70
2024/03/03 04:56:09;;;;;;;14.43;10.52;;;7.30;99.90;;;;;;5110189;28;20530;-72
2024/03/03 04:58:37;;;;;;;16.52;11.55;;;7.30;99.90;;;;;;5106925;28;20407;-72
2024/03/03 05:01:04;;;;;;;15.52;11.85;;;7.30;99.90;;;;;;5108194;28;20431;-72
2024/03/03 05:03:32;;;;;;;15.15;11.05;;;7.30;99.90;;;;;;5108105;28;20035;-73
2024/03/03 05:06:00;;;;;;;17.38;10.57;;;7.30;99.90;;;;;;5110639;28;20113;-70
2024/03/03 05:08:28;;;;;;;15.15;10.38;;;7.10;99.90;;;;;;5105088;28;20031;-73
2024/03/03 05:10:55;;;;;;;15.50;11.73;;;7.20;99.90;;;;;;5091438;28;20046;-75
2024/03/03 05:13:22;;;;;;;16.70;10.93;;;7.20;99.90;;;;;;5107378;28;20059;-74
2024/03/03 05:15:50;;;;;;;17.27;10.73;;;7.10;99.90;;;;;;5089095;28;20051;-70
2024/03/03 05:18:18;;;;;;;15.38;11.32;;;7.20;99.90;;;;;;5108764;28;20722;-73
2024/03/03 05:20:46;;;;;;;16.63;11.15;;;7.40;99.90;;;;;;5110328;28;20048;-72
2024/03/03 05:23:13;;;;;;;17.25;11.88;;;7.50;99.90;;;;;;5108284;28;20043;-73
2024/03/03 05:25:40;;;;;;;16.05;10.32;;;7.50;99.90;;;;;;5107134;28;20127;-74
2024/03/03 05:28:08;;;;;;;15.45;10.52;;;7.50;99.90;;;;;;5106668;28;20054;-73
2024/03/03 05:30:36;;;;;;;18.67;11.27;;;7.60;99.90;;;;;;5108365;28;20048;-73
2024/03/03 05:33:05;;;;;;;14.38;11.45;;;7.40;99.90;;;;;;5108794;28;20039;-72
2024/03/03 05:35:33;;;;;;;17.23;11.45;;;7.30;99.90;;;;;;5106743;28;20035;-71
2024/03/03 05:38:01;;;;;;;16.23;11.65;;;7.20;99.90;;;;;;5106281;28;20394;-72
2024/03/03 05:40:28;;;;;;;15.63;11.95;;;7.10;99.90;;;;;;5110042;28;20036;-72
2024/03/03 05:42:56;;;;;;;15.52;11.65;;;6.90;99.90;;;;;;5100760;28;20039;-71
2024/03/03 05:45:23;;;;;;;16.52;11.45;;;6.90;99.90;;;;;;5104175;28;20063;-74
2024/03/03 05:47:51;;;;;;;15.00;12.40;;;7.10;99.90;;;;;;5108485;28;20043;-73
2024/03/03 05:50:18;;;;;;;23.00;13.73;;;7.20;99.90;;;;;;5107024;28;20052;-72
2024/03/03 05:52:45;;;;;;;25.88;15.60;;;7.20;99.90;;;;;;5106773;28;20027;-74
2024/03/03 05:55:13;;;;;;;23.40;15.57;;;7.20;99.90;;;;;;5101155;28;20052;-74
2024/03/03 05:57:40;;;;;;;25.10;16.33;;;7.30;99.90;;;;;;5100442;28;20114;-74
2024/03/03 06:00:08;;;;;;;21.55;15.65;;;7.40;99.90;;;;;;5093892;28;20044;-72
2024/03/03 06:02:35;;;;;;;32.20;16.90;;;7.50;99.90;;;;;;5096600;28;20122;-71
2024/03/03 06:05:04;;;;;;;23.30;15.82;;;7.60;99.90;;;;;;5098617;28;20388;-72
2024/03/03 06:07:32;;;;;;;26.25;15.95;;;7.40;99.90;;;;;;5091471;28;20028;-73
2024/03/03 06:09:59;;;;;;;20.13;14.52;;;7.40;99.90;;;;;;5095825;28;20078;-71
2024/03/03 06:12:27;;;;;;;25.17;13.15;;;7.30;99.90;;;;;;5100395;28;20036;-71
2024/03/03 06:14:54;;;;;;;16.20;11.07;;;7.30;99.90;;;;;;5090541;28;20109;-73
2024/03/03 06:17:21;;;;;;;15.65;11.18;;;7.40;99.90;;;;;;5095874;28;20509;-72
2024/03/03 06:19:48;;;;;;;14.13;11.25;;;7.40;99.90;;;;;;5101050;28;20039;-74
2024/03/03 06:22:16;;;;;;;14.07;9.77;;;7.50;99.90;;;;;;5094076;28;20217;-72
2024/03/03 06:24:43;;;;;;;19.80;10.05;;;7.50;99.90;;;;;;5096386;28;20039;-72
2024/03/03 06:27:12;;;;;;;11.30;8.65;;;7.60;99.90;;;;;;5080662;28;20090;-71
2024/03/03 06:29:39;;;;;;;13.65;9.48;;;7.60;99.90;;;;;;5059272;28;20490;-73
2024/03/03 06:32:06;;;;;;;13.30;9.75;;;7.70;99.90;;;;;;5097614;28;20068;-72
2024/03/03 06:34:34;;;;;;;12.10;9.98;;;7.80;99.90;;;;;;5101412;28;20390;-75
2024/03/03 06:37:02;;;;;;;16.75;10.10;;;7.70;99.90;;;;;;5063671;28;20514;-72
2024/03/03 06:39:48;;;;;;;11.25;9.27;;;7.70;99.90;;;;;;5097903;28;20056;-74
2024/03/03 06:42:16;;;;;;;15.23;10.18;;;7.60;99.90;;;;;;5094153;28;20047;-70
2024/03/03 06:44:43;;;;;;;13.07;9.77;;;7.70;99.90;;;;;;5093403;28;20068;-72
2024/03/03 06:47:11;;;;;;;16.15;10.57;;;7.80;99.90;;;;;;5076364;28;20099;-73
2024/03/03 06:49:39;;;;;;;13.13;9.77;;;7.80;99.90;;;;;;5084480;28;20074;-73
2024/03/03 06:52:06;;;;;;;15.10;10.60;;;7.90;99.90;;;;;;5077073;28;20121;-73
2024/03/03 06:54:34;;;;;;;14.95;10.60;;;8.10;99.90;;;;;;5100734;28;20090;-71
2024/03/03 06:57:01;;;;;;;14.13;11.07;;;7.90;99.90;;;;;;5064486;28;20514;-72
2024/03/03 06:59:30;;;;;;;16.10;11.32;;;7.90;99.90;;;;;;5107377;28;20138;-72
2024/03/03 07:01:57;;;;;;;16.23;11.30;;;8.10;99.90;;;;;;5091160;28;20118;-72
2024/03/03 07:04:24;;;;;;;17.55;11.77;;;8.00;99.90;;;;;;5109087;28;20044;-74
2024/03/03 07:06:52;;;;;;;17.48;11.77;;;8.30;99.90;;;;;;5099735;28;20118;-73
2024/03/03 07:09:23;;;;;;;23.55;11.23;;;8.40;99.90;;;;;;5087945;28;20048;-74
2024/03/03 07:11:51;;;;;;;15.27;10.52;;;8.50;99.90;;;;;;5108346;28;20043;-71
2024/03/03 07:14:20;;;;;;;13.18;9.93;;;8.50;99.90;;;;;;5089082;28;20067;-72
2024/03/03 07:16:48;;;;;;;15.80;10.18;;;8.60;99.90;;;;;;5092579;28;20100;-73
2024/03/03 07:19:16;;;;;;;12.43;10.07;;;8.70;99.90;;;;;;5098222;28;20039;-72
2024/03/03 07:21:43;;;;;;;17.98;9.68;;;8.30;99.90;;;;;;5107410;28;20077;-75
2024/03/03 07:24:12;;;;;;;14.32;9.70;;;8.20;99.90;;;;;;5091369;28;20050;-74
2024/03/03 07:26:39;;;;;;;14.48;9.43;;;8.20;99.90;;;;;;5102816;28;20036;-74
2024/03/03 07:29:08;;;;;;;14.55;8.85;;;8.20;99.90;;;;;;5087835;28;20486;-71
2024/03/03 07:31:36;;;;;;;15.23;9.50;;;8.30;99.90;;;;;;5105672;28;20074;-73
2024/03/03 07:34:03;;;;;;;25.08;17.65;;;8.40;99.90;;;;;;5109202;28;20050;-74
2024/03/03 07:36:31;;;;;;;209.23;113.05;;;8.50;99.90;;;;;;5102038;28;20471;-72
2024/03/03 07:38:58;;;;;;;23.23;18.88;;;8.70;99.90;;;;;;5084094;28;20048;-72
2024/03/03 07:41:26;;;;;;;44.13;23.20;;;8.80;99.90;;;;;;5109426;28;20044;-75
2024/03/03 07:43:53;;;;;;;102.88;50.47;;;9.00;99.90;;;;;;5091493;28;20386;-74
2024/03/03 07:46:20;;;;;;;72.65;45.17;;;9.30;99.90;;;;;;5104750;28;20513;-71
2024/03/03 07:48:48;;;;;;;35.67;24.40;;;9.50;99.90;;;;;;5105307;28;20486;-71
2024/03/03 07:51:18;;;;;;;19.90;14.50;;;9.70;99.70;;;;;;5106681;28;20501;-72
2024/03/03 07:53:46;;;;;;;16.95;11.55;;;9.60;99.00;;;;;;5098804;28;20029;-72
2024/03/03 07:56:16;;;;;;;13.50;9.98;;;9.80;99.20;;;;;;5089886;28;20437;-74
2024/03/03 07:58:44;;;;;;;12.48;9.40;;;9.80;99.10;;;;;;5102332;28;20036;-71
2024/03/03 08:01:12;;;;;;;17.73;10.15;;;9.70;99.00;;;;;;5081538;28;20043;-72
2024/03/03 08:03:39;;;;;;;13.05;9.35;;;9.70;99.20;;;;;;5102316;28;20032;-72
2024/03/03 08:06:07;;;;;;;13.55;9.48;;;10.00;98.70;;;;;;5092879;28;20050;-72
2024/03/03 08:08:34;;;;;;;17.02;9.95;;;10.10;98.50;;;;;;5108400;28;20059;-70
2024/03/03 08:11:01;;;;;;;15.85;9.65;;;10.20;98.30;;;;;;5099313;28;20047;-72
2024/03/03 08:13:28;;;;;;;12.15;8.88;;;10.30;97.90;;;;;;5110931;28;20027;-73
2024/03/03 08:15:56;;;;;;;11.10;8.98;;;10.30;98.30;;;;;;5087463;28;20487;-71
2024/03/03 08:18:23;;;;;;;12.25;9.48;;;10.50;98.00;;;;;;5114943;27;20101;-72
2024/03/03 08:20:50;;;;;;;12.88;9.00;;;10.60;97.70;;;;;;5090596;28;20463;-72
2024/03/03 08:23:18;;;;;;;13.35;8.95;;;10.50;97.50;;;;;;5107067;28;20066;-73
2024/03/03 08:25:49;;;;;;;15.00;9.55;;;10.70;97.80;;;;;;5108906;28;20058;-73
2024/03/03 08:28:16;;;;;;;15.68;9.48;;;10.50;97.80;;;;;;5110932;28;20043;-74
2024/03/03 08:30:43;;;;;;;19.23;9.65;;;10.80;98.10;;;;;;5099955;28;20066;-73
2024/03/03 08:33:11;;;;;;;14.23;9.50;;;11.20;97.70;;;;;;5110321;28;20041;-74
2024/03/03 08:35:39;;;;;;;13.00;9.15;;;11.50;97.20;;;;;;5107795;28;20520;-71
2024/03/03 08:38:06;;;;;;;16.48;9.88;;;11.80;96.90;;;;;;5110820;28;20383;-74
2024/03/03 08:40:33;;;;;;;18.75;9.20;;;11.40;96.90;;;;;;5110542;28;20035;-71
2024/03/03 08:43:00;;;;;;;39.42;24.73;;;11.50;96.40;;;;;;5103946;28;20040;-73
2024/03/03 08:45:28;;;;;;;65.80;37.75;;;11.60;97.60;;;;;;5097690;28;20040;-72
2024/03/03 08:47:56;;;;;;;88.88;52.78;;;11.90;97.30;;;;;;5106783;28;20035;-71
2024/03/03 08:50:24;;;;;;;21.75;15.25;;;12.10;96.50;;;;;;5106823;28;20406;-73
2024/03/03 08:52:51;;;;;;;18.63;12.48;;;12.40;96.70;;;;;;5090343;28;20663;-73
2024/03/03 08:55:19;;;;;;;17.48;10.93;;;12.70;96.50;;;;;;5105328;28;20052;-76
2024/03/03 08:57:46;;;;;;;15.30;9.10;;;13.00;95.90;;;;;;5101545;28;20132;-75
2024/03/03 09:00:14;;;;;;;15.50;9.88;;;13.30;94.50;;;;;;5105789;28;20569;-73
2024/03/03 09:02:41;;;;;;;15.15;9.50;;;13.20;94.60;;;;;;5102107;28;20047;-72
2024/03/03 09:05:11;;;;;;;15.38;9.77;;;13.30;94.30;;;;;;5104792;28;20043;-73
2024/03/03 09:07:41;;;;;;;15.05;9.65;;;13.40;94.00;;;;;;5100207;28;21521;-71
2024/03/03 09:10:08;;;;;;;14.25;10.18;;;13.50;94.50;;;;;;5103390;27;20096;-71
2024/03/03 09:12:36;;;;;;;17.25;9.77;;;14.00;94.30;;;;;;5104797;28;20039;-71
2024/03/03 09:15:03;;;;;;;13.93;8.25;;;13.90;93.10;;;;;;5109965;27;20432;-77
2024/03/03 09:17:31;;;;;;;14.43;9.25;;;13.60;94.00;;;;;;5105369;28;20051;-74
2024/03/03 09:19:58;;;;;;;15.85;9.98;;;14.10;94.20;;;;;;5101950;28;20111;-75
2024/03/03 09:22:26;;;;;;;43.03;28.30;;;14.40;93.50;;;;;;5090954;28;20085;-75
2024/03/03 09:24:53;;;;;;;22.60;16.15;;;14.60;92.90;;;;;;5105385;28;20039;-74
2024/03/03 09:27:23;;;;;;;16.50;11.00;;;14.70;92.90;;;;;;5105815;28;20068;-73
2024/03/03 09:29:54;;;;;;;;;;;14.90;92.00;;;;;;5101181;28;20032;-73
2024/03/03 09:32:21;;;;;;;15.50;9.25;;;15.00;91.70;;;;;;5105042;28;19920;-75
2024/03/03 09:34:49;;;;;;;14.20;8.70;;;14.80;91.60;;;;;;5108760;28;20062;-71
2024/03/03 09:37:17;;;;;;;13.80;7.97;;;14.50;91.80;;;;;;5103422;28;20036;-70
2024/03/03 09:39:45;;;;;;;15.63;8.48;;;15.10;91.60;;;;;;5104882;28;20047;-77
2024/03/03 09:42:13;;;;;;;14.05;7.82;;;15.30;90.90;;;;;;5105094;28;20047;-77
2024/03/03 09:44:44;;;;;;;15.70;7.93;;;15.50;90.90;;;;;;5082484;28;20067;-74
2024/03/03 09:47:13;;;;;;;14.10;8.15;;;16.00;90.40;;;;;;5090082;28;20383;-72
2024/03/03 09:49:44;;;;;;;11.32;7.40;;;15.80;90.20;;;;;;5105536;28;20398;-74
2024/03/03 09:52:13;;;;;;;10.80;7.50;;;15.70;89.00;;;;;;5106188;28;20466;-73
2024/03/03 09:54:42;;;;;;;11.93;7.65;;;15.70;90.20;;;;;;5107133;28;20116;-76
2024/03/03 09:57:12;;;;;;;11.43;6.65;;;15.90;89.40;;;;;;5091979;28;20040;-76
2024/03/03 09:59:41;;;;;;;11.88;6.55;;;15.70;88.70;;;;;;5106039;28;20094;-75
2024/03/03 10:02:15;;;;;;;13.52;7.53;;;15.70;88.70;;;;;;5084648;28;20046;-76
2024/03/03 10:04:47;;;;;;;12.73;6.90;;;15.70;89.20;;;;;;5109087;28;20394;-75
2024/03/03 10:07:24;;;;;;;9.95;6.05;;;15.90;88.00;;;;;;5105578;28;20479;-76
2024/03/03 10:10:08;;;;;;;18.45;12.07;;;16.20;87.10;;;;;;5082076;28;20039;-75
2024/03/03 10:12:36;;;;;;;13.48;8.07;;;16.40;85.80;;;;;;5084860;28;20144;-75
2024/03/03 10:15:08;;;;;;;54.72;35.67;;;16.40;86.10;;;;;;5088945;28;20052;-76
2024/03/03 10:17:35;;;;;;;13.27;9.35;;;16.70;84.40;;;;;;5110725;28;20123;-74
2024/03/03 10:20:08;;;;;;;49.67;31.42;;;16.80;84.80;;;;;;5103534;28;20036;-73
2024/03/03 10:22:36;;;;;;;23.17;15.07;;;17.00;84.60;;;;;;5102426;28;20044;-71
2024/03/03 10:25:11;;;;;;;12.93;8.98;;;17.40;84.00;;;;;;5107506;28;20043;-73
2024/03/03 10:27:47;;;;;;;8.73;5.53;;;17.50;83.40;;;;;;5090599;27;20047;-74
2024/03/03 10:30:21;;;;;;;9.15;5.93;;;17.10;82.30;;;;;;5081329;28;20044;-72
2024/03/03 10:33:04;;;;;;;10.85;5.35;;;16.80;83.40;;;;;;5088343;28;20039;-74
2024/03/03 10:35:31;;;;;;;;;;;17.20;83.80;;;;;;5102333;28;20039;-72
2024/03/03 10:38:01;;;;;;;9.73;5.95;;;17.30;82.90;;;;;;5089168;28;20321;-72
2024/03/03 10:40:29;;;;;;;13.90;6.13;;;17.60;83.30;;;;;;5112502;28;20067;-71
2024/03/03 10:42:56;;;;;;;10.20;5.63;;;17.50;83.10;;;;;;5109781;28;20406;-71
2024/03/03 10:45:24;;;;;;;10.40;5.70;;;17.60;83.30;;;;;;5109420;28;20118;-76
2024/03/03 10:47:52;;;;;;;10.82;4.80;;;17.90;81.20;;;;;;5108884;28;20398;-74
2024/03/03 10:50:22;;;;;;;8.70;4.50;;;17.60;82.70;;;;;;5106590;28;20919;-75
2024/03/03 10:52:50;;;;;;;10.73;6.22;;;18.10;81.00;;;;;;5108881;28;20035;-74
2024/03/03 10:55:18;;;;;;;13.48;4.82;;;18.50;79.40;;;;;;5085715;28;20048;-75
2024/03/03 10:57:46;;;;;;;8.50;4.57;;;18.90;79.70;;;;;;5104767;28;20039;-73
2024/03/03 11:00:22;;;;;;;8.77;4.95;;;18.50;78.90;;;;;;5103614;28;20108;-72
2024/03/03 11:02:53;;;;;;;12.95;5.68;;;18.80;77.70;;;;;;5102823;27;20123;-73
2024/03/03 11:05:22;;;;;;;28.75;15.95;;;20.90;75.50;;;;;;5090971;28;20554;-75
2024/03/03 11:07:50;;;;;;;24.27;17.48;;;24.00;69.10;;;;;;5107518;28;20027;-71
2024/03/03 11:10:19;;;;;;;25.20;15.35;;;26.00;62.70;;;;;;5090239;28;20146;-78
2024/03/03 11:12:50;;;;;;;39.67;25.83;;;27.00;61.10;;;;;;5104870;28;20039;-76
2024/03/03 11:15:20;;;;;;;18.45;10.32;;;27.90;59.50;;;;;;5104644;28;20100;-75
2024/03/03 11:18:04;;;;;;;62.38;36.22;;;28.70;56.50;;;;;;5088963;28;20052;-77
2024/03/03 11:20:39;;;;;;;15.35;10.50;;;28.00;53.50;;;;;;5091231;28;20589;-76
2024/03/03 11:23:20;;;;;;;79.38;49.63;;;23.40;58.40;;;;;;5099592;28;20050;-75
2024/03/03 11:26:03;;;;;;;40.92;27.33;;;21.00;63.90;;;;;;5089951;28;20043;-74
2024/03/03 11:28:34;;;;;;;14.77;7.70;;;20.50;66.70;;;;;;5091307;28;20383;-79
2024/03/03 11:31:01;;;;;;;;;;;20.40;66.00;;;;;;5109263;28;20446;-77
2024/03/03 11:33:29;;;;;;;14.65;6.32;;;20.10;64.60;;;;;;5108491;28;19923;-76
2024/03/03 11:35:58;;;;;;;7.97;5.03;;;20.10;65.90;;;;;;5117944;28;20040;-76
2024/03/03 11:38:44;;;;;;;8.45;4.25;;;20.40;63.20;;;;;;5109833;28;20479;-78
2024/03/03 11:41:29;;;;;;;9.88;4.20;;;20.40;59.90;;;;;;5109819;28;20016;-80
2024/03/03 11:43:56;;;;;;;6.35;3.85;;;20.10;60.60;;;;;;5112475;28;20035;-77
2024/03/03 11:46:47;;;;;;;7.63;4.50;;;20.50;62.40;;;;;;5115717;28;20067;-76
2024/03/03 11:49:17;;;;;;;14.32;8.23;;;21.00;63.10;;;;;;5107707;28;20044;-75
2024/03/03 11:51:45;;;;;;;17.35;8.73;;;21.20;63.40;;;;;;5092374;28;20410;-73
2024/03/03 11:54:13;;;;;;;10.98;4.60;;;21.20;63.20;;;;;;5105476;28;20040;-76
2024/03/03 11:57:05;;;;;;;10.65;4.90;;;21.60;62.60;;;;;;5109474;28;20522;-77
2024/03/03 11:59:46;;;;;;;9.45;3.50;;;22.10;61.90;;;;;;5106294;28;20054;-73
2024/03/03 12:02:17;;;;;;;6.03;3.22;;;22.10;60.60;;;;;;5073797;28;20047;-70
2024/03/03 12:04:46;;;;;;;9.88;3.20;;;21.90;61.40;;;;;;5088378;28;20040;-73
2024/03/03 12:07:17;;;;;;;7.32;2.75;;;21.90;60.70;;;;;;5106573;28;20495;-72
2024/03/03 12:09:45;;;;;;;9.02;4.47;;;21.60;60.00;;;;;;5106882;28;20446;-74
2024/03/03 12:12:13;;;;;;;14.70;10.15;;;21.70;61.00;;;;;;5105611;28;20047;-73
2024/03/03 12:14:41;;;;;;;10.98;4.78;;;22.20;59.70;;;;;;5085957;28;20537;-71
2024/03/03 12:17:09;;;;;;;7.65;3.13;;;22.30;60.30;;;;;;5072807;28;20036;-74
2024/03/03 12:19:37;;;;;;;39.67;23.05;;;26.70;57.60;;;;;;5109834;28;20058;-74
2024/03/03 12:22:07;;;;;;;84.45;55.28;;;30.10;51.80;;;;;;5107988;28;20044;-71
2024/03/03 12:24:36;;;;;;;10.25;6.60;;;31.70;49.30;;;;;;5087772;28;20062;-76
2024/03/03 12:27:06;;;;;;;6.32;3.35;;;33.40;47.40;;;;;;5106241;28;20063;-75
2024/03/03 12:29:34;;;;;;;;;;;32.60;46.80;;;;;;5074864;28;20048;-72
2024/03/03 12:32:03;;;;;;;7.55;2.40;;;31.90;46.80;;;;;;5103390;28;19930;-76
2024/03/03 12:34:31;;;;;;;6.65;2.63;;;32.10;45.40;;;;;;5074137;28;20425;-73
2024/03/03 12:36:58;;;;;;;8.25;2.95;;;33.50;45.00;;;;;;5106929;28;20046;-76
2024/03/03 12:39:26;;;;;;;7.32;2.78;;;33.40;45.00;;;;;;5090260;28;20081;-73
2024/03/03 12:41:53;;;;;;;6.25;2.60;;;30.80;47.30;;;;;;5091519;28;20130;-73
2024/03/03 12:44:24;;;;;;;6.70;2.70;;;32.10;45.70;;;;;;5105816;28;20049;-73